Dwellingup, Australia
Current Conditions -  °F | °C
As of 7:00 AM on Friday 28 Nov 2014 (Local Time) from YPJT Reporting Station
Scattered Clouds Scattered Clouds  
Wind Chill: 68°   Ceiling: Unl
Heat Index: 68°   Visibility: 6mi
Dew Point: 63°   Wind: 1mph
Humidity: 83%   Direction: 210°SSW
Pressure: 29.83"   Gusts: NA
Location:  32.71°S, 116.06°E
Report Text: YPJT 272300Z AUTO 21001KT 9999 // SCT060 20/17 Q1010
Loading
Personal Weather Stations






























Interactive Weather Map New forecast layout! Learn more

10-Day Weather Forecast

Advertisements
Track Severe Weather on mobile